Airfield :
LOGIN :

Register | Disclaimer

   EN    FR    IT 

 










Legend :    VFR   Marginal VFR   IFR   Intensive IFR   Very Intensive IFR
Visi :
Ceiling :
>= 8 km
>= 3000ft
5 to 8 km
1000 to 3000 ft
1500m to 5 km
500 to 1000 ft
800 to 1500m
200 to 500 ft
< 800m
< 200 ft
Symbols :   Thunderstorms  Fog  Heavy snow  Heavy precipitations  Wind > 20 kt
SIGMETs :     Misc.  Thunderstorms  Icing  Turbulence  Mountain Waves  Volcanic Ashes






- Airport Elevation : 183 ft
- IATA code : HAJ


EDDV - Hanover/Langenhagen Int.

CURRENT METAR :
  • 182020Z 25010KT 9999 FEW018 BKN025 04/02 Q1016 NOSIG

EXPIRED METARs :
  • 181950Z 25011KT 9999 FEW017 BKN027 05/02 Q1016 NOSIG
  • 181920Z 25011G21KT 9999 FEW017 SCT026 05/02 Q1016 NOSIG
  • 181850Z 26010KT 230V290 9999 FEW017 SCT028 04/02 Q1016 NOSIG
  • 181820Z 26011KT 9999 FEW017 BKN049 04/02 Q1016 NOSIG
  • 181750Z 25012KT 9999 SCT017 BKN049 04/02 Q1016 NOSIG

TAF TAF EDDV
Valid from the 18 at 18:00 until the 19 at 18:00 UTC


181700Z 1818/1918 23010KT 9999 BKN013
TEMPO 1818/1824 SCT013 BKN020
PROB30
TEMPO 1818/1906 3500 -RADZ BR BKN007
TEMPO 1906/1918 3500 -RADZ BKN007
TEMPO 1908/1918 22015G25KT



MET'MAP, your aeronautical weather chart ! - Copyright ORBIFLY December 2007 - Disclaimer

ORBIFLY MET'MAP TEAM :

Programming & Development : Alexandra Zaïnal
Concept & original design : Baudouin d'Aumeries
Assistance for programming : Marc-Olivier Méhu
Technical & hardware support : Manuel Goepfert

Contact : metmap@orbifly.com




SOURCES & CREDITS :

   NOAA